Historyczne dane pomiarowe

Dodano dane terminowe – wersja testowa.

Dane z okresu 1951-2019

Wersja bazy: 1.34 [2019-03-16, lista zmian], aktualizacja planowana na 2019-04-15

Dane meteo z obszaru Polski uzyskane na podstawie danych udostępnionych przez Instytut Meteorologii i Gospodarki Wodnej – Państwowy Instytut Badawczy.

 

Wybierz Datę:    

       

TemperaturaWilgotnośćWiatrCiśnienieOpadyŚniegCzas trwania zjawisk
 Stacja t tx tn tng RH VA  wxwx mslp ppp RRR   cm mm wxwxwxwxwxwxwx
1994-08-14 11.6 16.2 9.5- 75.8- 2.3 1.0---- 0.0------------
1994-08-13 13.9 18.0 11.5- 92.8- 6.7 0.3---- 0.7------------
1994-08-12 13.8 17.8 12.4- 99.8- 7.7 0.3---- 9.5------------
1994-08-11 17.4 21.0 16.2- 95.3- 6.0 0.7---- 10.5------------
1994-08-10 18.1 25.0 11.7- 80.8- 2.7 0.7---- 2.7------------
1994-08-09 16.3 18.5 14.8- 99.5- 7.7 0.7---- 15.4------------
1994-08-08 18.8 26.1 14.8- 86.8- 5.0 0.7---- 20.3------------
1994-08-07 20.0 27.1 14.8- 86.8- 6.0 0.7---- 23.0------------
1994-08-06 23.3 29.0 18.2- 59.5- 1.7 1.0---- 0.1------------
1994-08-05 21.7 27.1 14.8- 70.3- 2.0 1.0---- 0.0------------
1994-08-04 20.0 25.4 14.8- 76.3- 1.7 0.7---- 0.0------------
1994-08-03 20.9 26.5 16.1- 78.3- 4.3 0.3---- 0.0------------
1994-08-02 21.6 25.7 18.7- 66.5- 4.3 0.3---- 5.0------------
1994-08-01 23.8 31.1 20.1- 57.8- 2.3 1.0---- 1.0------------
1994-07-31 24.3 30.3 17.8- 55.0- 2.3 1.3---- 0.0------------
1994-07-30 24.3 30.6 17.8- 49.5- 1.3 1.0---- 0.0------------
1994-07-29 24.1 29.8 17.8- 46.5- 0.0 0.3---- 0.0------------
1994-07-28 23.4 28.1 18.3- 52.8- 1.3 0.3---- 0.0------------
1994-07-27 23.1 28.7 17.8- 58.0- 2.3 0.7---- 0.0------------
1994-07-26 23.2 28.5 17.8- 54.0- 2.7 0.7---- 0.0------------
1994-07-25 21.9 27.0 16.0- 57.0- 3.3 0.7---- 0.0------------
1994-07-24 21.6 25.9 16.2- 54.3- 2.3 1.0---- 0.0------------
1994-07-23 20.7 25.0 14.4- 51.8- 0.7 1.0---- 0.0------------
1994-07-22 19.7 24.3 13.0- 51.5- 0.0 1.0---- 0.0------------
1994-07-21 17.5 22.4 11.7- 58.3- 0.0 0.7---- 0.0------------
1994-07-20 16.4 20.6 12.5- 68.3- 2.7 1.0---- 0.0------------
1994-07-19 17.7 21.1 14.4- 81.5- 5.7 0.7---- 0.8------------
1994-07-18 17.6 23.5 12.9- 88.5- 4.7 0.7---- 0.0------------
1994-07-17 19.1 24.5 13.3- 82.5- 2.7 0.3---- 9.8------------
1994-07-16 18.2 25.1 14.4- 88.3- 3.7 1.0---- 19.7------------
1994-07-15 18.4 23.9 13.1- 87.5- 3.3 0.3---- 16.9------------
1994-07-14 19.3 25.1 15.3- 67.0- 4.0 1.3---- 0.0------------
1994-07-13 20.2 23.6 14.4- 61.5- 3.0 1.0---- 0.0------------
1994-07-12 17.5 21.9 11.4- 79.8- 1.3 1.7---- 0.0------------
1994-07-11 14.9 21.5 9.5- 84.8- 4.0 1.0---- 0.0------------
1994-07-10 12.2 16.6 9.4- 96.5- 6.0 0.7---- 6.3------------
1994-07-09 11.5 17.1 9.9- 95.5- 7.7 0.7---- 24.5------------
1994-07-08 13.8 17.2 9.6- 78.5- 1.3 1.0---- 0.1------------
1994-07-07 16.5 23.6 13.9- 74.8- 5.3 1.0---- 5.2------------
1994-07-06 17.7 22.5 10.4- 68.3- 0.7 1.0---- 0.0------------
1994-07-05 20.6 24.5 15.9- 61.5- 6.3 0.7---- 0.0------------
1994-07-04 21.0 26.0 14.0- 50.5- 0.0 0.7---- 0.0------------
1994-07-03 18.6 24.7 11.9- 59.8- 1.3 0.7---- 0.0------------
1994-07-02 18.2 23.0 13.9- 61.8- 0.3 0.7---- 0.0------------
1994-07-01 16.6 20.5 13.4- 75.3- 1.0 1.3---- 0.0------------
1994-06-30 19.4 25.2 17.0- 96.5- 5.0 1.0---- 0.0------------
1994-06-29 23.0 28.1 16.4- 76.5- 1.3 0.7---- 0.0------------
1994-06-28 22.1 28.1 16.3- 86.0- 4.0 1.0---- 0.0------------
1994-06-27 23.5 29.3 16.3- 72.0- 2.0 1.0---- 0.0------------
1994-06-26 19.0 25.7 11.0- 64.5- 0.7 1.7---- 0.0------------
1994-06-25 16.1 23.6 8.3- 47.3- 0.0 0.3---- 0.0------------
1994-06-24 12.3 17.5 5.4- 60.3- 0.3 1.0---- 0.0------------
1994-06-23 14.3 20.4 10.4- 79.5- 5.0 1.0---- 0.0------------
1994-06-22 16.7 24.1 8.9- 69.0- 4.7 1.3---- 0.8------------
1994-06-21 13.1 17.8 7.9- 74.3- 1.7 1.3---- 0.0------------
1994-06-20 14.7 20.0 10.4- 82.5- 5.0 1.3---- 0.0------------
1994-06-19 15.6 23.1 8.5- 70.0- 3.7 1.3---- 0.0------------
1994-06-18 8.6 16.7 3.0- 90.8- 4.7 1.7---- 9.5------------
1994-06-17 8.0 11.4 5.3- 98.8- 5.7 0.3---- 3.4------------
1994-06-16 10.1 13.6 5.5- 82.3- 5.7 1.0---- 5.1------------
217.4 ms

 

Źródłem pochodzenia danych jest Instytut Meteorologii i Gospodarki Wodnej – Państwowy Instytut Badawczy. Dane Instytutu Meteorologii i Gospodarki Wodnej – Państwowego Instytutu Badawczego zostały przetworzone.

Dane źródłowe można odnaleźć na stronie https://dane.imgw.pl